createdAt,value
2023-08-16T00:00:31.045Z,3.43
2023-08-16T00:02:57.781Z,3.34
2023-08-16T00:05:24.479Z,3.52
2023-08-16T00:14:00.113Z,3.38
2023-08-16T00:16:46.892Z,3.03
2023-08-16T00:19:13.582Z,3.28
2023-08-16T00:21:40.522Z,3.28
2023-08-16T00:24:07.194Z,3.48
2023-08-16T00:26:34.107Z,3.37
2023-08-16T00:29:02.320Z,3.20
2023-08-16T00:31:30.470Z,3.48
2023-08-16T00:43:42.953Z,3.38
2023-08-16T00:46:15.847Z,3.78
2023-08-16T00:52:05.994Z,3.66
2023-08-16T00:57:26.667Z,3.44
2023-08-16T00:59:55.937Z,3.62
2023-08-16T01:02:23.135Z,3.03
2023-08-16T01:04:49.728Z,3.54
2023-08-16T01:07:18.963Z,3.81
2023-08-16T01:09:45.762Z,3.81
2023-08-16T01:12:12.425Z,3.60
2023-08-16T01:14:39.023Z,3.64
2023-08-16T01:17:05.943Z,3.57
2023-08-16T01:19:32.847Z,3.33
2023-08-16T01:21:59.559Z,3.57
2023-08-16T01:24:28.625Z,3.46
2023-08-16T01:26:55.271Z,3.83
2023-08-16T01:29:21.948Z,3.32
2023-08-16T01:31:48.656Z,3.53
2023-08-16T01:34:15.388Z,3.65
2023-08-16T01:36:42.034Z,3.68
2023-08-16T01:39:09.599Z,3.73
2023-08-16T01:41:36.633Z,4.00
2023-08-16T01:44:03.263Z,3.79
2023-08-16T01:46:30.356Z,3.69
2023-08-16T01:48:57.447Z,3.69
2023-08-16T01:54:39.825Z,3.85
2023-08-16T01:57:06.795Z,3.59
2023-08-16T02:02:36.288Z,3.62
2023-08-16T02:05:03.896Z,3.36
2023-08-16T02:07:30.770Z,3.47
2023-08-16T02:09:59.408Z,3.56
2023-08-16T02:12:26.036Z,3.56
2023-08-16T02:14:53.635Z,3.70
2023-08-16T02:17:20.323Z,3.61
2023-08-16T02:19:47.211Z,3.75
2023-08-16T02:22:14.022Z,3.86
2023-08-16T02:24:40.716Z,3.50
2023-08-16T02:27:07.397Z,3.82
2023-08-16T02:29:34.292Z,3.85
2023-08-16T02:32:01.146Z,3.74
2023-08-16T02:34:27.760Z,4.03
2023-08-16T02:36:54.682Z,3.91
2023-08-16T02:39:22.025Z,3.58
2023-08-16T02:41:51.210Z,3.70
2023-08-16T02:44:18.665Z,3.75
2023-08-16T02:46:45.360Z,3.99
2023-08-16T02:49:13.052Z,3.76
2023-08-16T02:51:39.712Z,3.75
2023-08-16T02:54:06.729Z,3.79
2023-08-16T02:56:33.315Z,4.00
2023-08-16T02:58:59.980Z,3.92
2023-08-16T03:01:26.658Z,4.15
2023-08-16T03:03:53.313Z,4.00
2023-08-16T03:06:19.994Z,3.79
2023-08-16T03:08:46.998Z,3.90
2023-08-16T03:11:13.900Z,3.79
2023-08-16T03:13:40.494Z,3.84
2023-08-16T03:16:07.586Z,3.91
2023-08-16T03:18:34.466Z,3.93
2023-08-16T03:21:01.418Z,4.14
2023-08-16T03:23:27.988Z,3.69
2023-08-16T03:29:12.381Z,4.10
2023-08-16T03:31:40.142Z,4.20
2023-08-16T03:34:08.819Z,4.07
2023-08-16T03:36:38.567Z,3.90
2023-08-16T03:39:05.166Z,3.74
2023-08-16T03:41:32.075Z,4.07
2023-08-16T03:43:58.958Z,3.82
2023-08-16T03:46:25.855Z,4.06
2023-08-16T03:48:52.995Z,3.98
2023-08-16T03:51:19.991Z,3.64
2023-08-16T03:53:46.627Z,3.90
2023-08-16T03:56:13.351Z,3.94
2023-08-16T03:58:40.882Z,4.01
2023-08-16T04:01:07.444Z,3.84
2023-08-16T04:03:34.405Z,3.87
2023-08-16T04:06:01.190Z,4.02
2023-08-16T04:08:28.213Z,3.83
2023-08-16T04:10:57.341Z,4.00
2023-08-16T04:13:44.287Z,4.15
2023-08-16T04:16:31.250Z,4.18
2023-08-16T04:18:57.949Z,4.38
2023-08-16T04:21:24.619Z,4.29
2023-08-16T04:23:51.596Z,3.99
2023-08-16T04:26:18.317Z,4.10
2023-08-16T04:28:47.395Z,4.41
2023-08-16T04:31:14.350Z,4.24
2023-08-16T04:33:40.987Z,4.06
2023-08-16T04:36:09.841Z,4.42
2023-08-16T04:38:38.088Z,4.21
2023-08-16T04:41:05.423Z,4.46
2023-08-16T04:43:32.957Z,4.26
2023-08-16T04:46:03.206Z,4.26
2023-08-16T04:48:30.748Z,4.23
2023-08-16T04:50:57.676Z,4.26
2023-08-16T04:53:24.263Z,4.42
2023-08-16T04:55:51.438Z,4.02
2023-08-16T04:58:19.225Z,4.23
2023-08-16T05:00:45.805Z,4.42
2023-08-16T05:03:12.701Z,4.34
2023-08-16T05:05:40.104Z,4.25
2023-08-16T05:08:07.121Z,4.45
2023-08-16T05:10:33.953Z,4.29
2023-08-16T05:13:02.229Z,4.19
2023-08-16T05:15:29.183Z,4.48
2023-08-16T05:17:55.837Z,4.36
2023-08-16T05:20:23.285Z,4.58
2023-08-16T05:22:50.940Z,4.34
2023-08-16T05:25:17.602Z,4.15
2023-08-16T05:27:47.499Z,4.01
2023-08-16T05:30:14.835Z,4.07
2023-08-16T05:32:41.608Z,3.37
2023-08-16T05:35:08.681Z,3.80
2023-08-16T05:37:35.731Z,3.80
2023-08-16T05:40:02.704Z,3.85
2023-08-16T05:42:29.896Z,3.48
2023-08-16T05:44:56.880Z,3.75
2023-08-16T05:47:24.011Z,3.76
2023-08-16T05:49:51.008Z,3.86
2023-08-16T05:52:20.944Z,3.32
2023-08-16T05:58:05.264Z,3.66
2023-08-16T06:00:35.311Z,3.50
2023-08-16T06:03:02.837Z,3.40
2023-08-16T06:05:29.801Z,3.46
2023-08-16T06:07:56.912Z,3.34
2023-08-16T06:13:16.867Z,3.42
2023-08-16T06:15:43.634Z,3.25
2023-08-16T06:18:10.343Z,3.53
2023-08-16T06:20:38.555Z,3.35
2023-08-16T06:23:05.557Z,3.38
2023-08-16T06:25:34.832Z,3.38
2023-08-16T06:28:02.958Z,3.08
2023-08-16T06:30:29.953Z,3.09
2023-08-16T06:32:56.904Z,3.43
2023-08-16T06:35:24.729Z,3.24
2023-08-16T06:37:53.208Z,3.25
2023-08-16T06:40:20.165Z,3.37
2023-08-16T06:42:47.086Z,3.36
2023-08-16T06:45:13.792Z,3.24
2023-08-16T06:47:41.433Z,3.14
2023-08-16T06:50:08.404Z,3.33
2023-08-16T06:52:35.362Z,3.58
2023-08-16T06:55:02.242Z,3.54
2023-08-16T06:57:34.143Z,3.92
2023-08-16T07:00:01.756Z,3.58
2023-08-16T07:02:31.106Z,3.36
2023-08-16T07:04:58.512Z,3.27
2023-08-16T07:10:18.947Z,3.36
2023-08-16T07:12:47.647Z,3.66
2023-08-16T07:15:15.572Z,3.39
2023-08-16T07:17:42.863Z,3.45
2023-08-16T07:20:10.788Z,3.29
2023-08-16T07:22:37.700Z,3.30
2023-08-16T07:25:04.462Z,3.40
2023-08-16T07:27:31.464Z,3.35
2023-08-16T07:29:58.294Z,3.49
2023-08-16T07:32:25.314Z,3.45
2023-08-16T07:34:52.143Z,3.52
2023-08-16T07:37:19.183Z,3.53
2023-08-16T07:39:45.795Z,3.44
2023-08-16T07:42:14.791Z,3.57
2023-08-16T07:44:41.691Z,3.87
2023-08-16T07:47:08.994Z,3.64
2023-08-16T07:49:37.945Z,3.77
2023-08-16T07:52:04.675Z,3.79
2023-08-16T07:54:36.020Z,3.72
2023-08-16T07:57:03.089Z,3.77
2023-08-16T07:59:29.862Z,4.24
2023-08-16T08:01:56.792Z,5.66
2023-08-16T08:04:23.794Z,4.18
2023-08-16T08:06:50.746Z,3.91
2023-08-16T08:12:02.279Z,4.85
2023-08-16T08:14:30.666Z,4.44
2023-08-16T08:16:58.313Z,4.17
2023-08-16T08:19:25.017Z,4.28
2023-08-16T08:21:52.749Z,4.09
2023-08-16T08:26:53.134Z,4.39
2023-08-16T08:29:19.859Z,4.38
2023-08-16T08:31:51.874Z,4.53
2023-08-16T08:34:18.805Z,4.19
2023-08-16T08:36:45.740Z,4.23
2023-08-16T08:39:12.409Z,4.53
2023-08-16T08:41:47.944Z,4.47
2023-08-16T08:44:15.240Z,4.57
2023-08-16T08:46:42.192Z,4.48
2023-08-16T08:49:09.044Z,4.57
2023-08-16T08:51:36.797Z,4.29
2023-08-16T08:54:03.712Z,4.33
2023-08-16T08:56:31.697Z,4.46
2023-08-16T08:59:12.969Z,4.73
2023-08-16T09:01:42.321Z,4.91
2023-08-16T09:04:09.434Z,4.44
2023-08-16T09:09:10.505Z,4.38
2023-08-16T09:11:37.226Z,4.62
2023-08-16T09:14:04.762Z,4.90
2023-08-16T09:16:42.109Z,4.77
2023-08-16T09:19:08.949Z,4.56
2023-08-16T09:21:35.811Z,4.55
2023-08-16T09:24:02.588Z,4.39
2023-08-16T09:26:31.323Z,4.47
2023-08-16T09:28:58.790Z,4.58
2023-08-16T09:31:26.041Z,4.93
2023-08-16T09:33:55.122Z,4.70
2023-08-16T09:36:24.085Z,4.86
2023-08-16T09:38:51.410Z,4.68
2023-08-16T09:41:18.098Z,5.17
2023-08-16T09:43:47.250Z,5.26
2023-08-16T09:46:15.263Z,4.75
2023-08-16T09:51:12.116Z,4.44
2023-08-16T09:53:41.341Z,4.69
2023-08-16T09:58:40.199Z,5.30
2023-08-16T10:03:36.514Z,4.97
2023-08-16T10:06:03.257Z,5.24
2023-08-16T10:08:29.950Z,5.72
2023-08-16T10:10:57.957Z,5.30
2023-08-16T10:13:25.657Z,5.09
2023-08-16T10:15:52.319Z,4.44
2023-08-16T10:18:19.570Z,5.05
2023-08-16T10:20:46.541Z,4.59
2023-08-16T10:23:13.507Z,5.11
2023-08-16T10:25:40.725Z,4.92
2023-08-16T10:28:07.652Z,4.81
2023-08-16T10:30:35.069Z,4.79
2023-08-16T10:33:04.156Z,4.91
2023-08-16T10:35:30.845Z,5.06
2023-08-16T10:37:59.831Z,4.97
2023-08-16T10:40:27.306Z,4.85
2023-08-16T10:42:54.287Z,5.00
2023-08-16T10:45:20.885Z,5.06
2023-08-16T10:47:47.878Z,4.82
2023-08-16T10:50:16.372Z,4.68
2023-08-16T10:52:45.100Z,4.55
2023-08-16T10:55:15.120Z,4.65
2023-08-16T10:57:45.519Z,4.75
2023-08-16T11:00:12.517Z,4.34
2023-08-16T11:02:39.361Z,4.42
2023-08-16T11:05:06.332Z,4.64
2023-08-16T11:07:35.641Z,4.43
2023-08-16T11:10:02.792Z,4.43
2023-08-16T11:12:30.547Z,4.64
2023-08-16T11:14:58.202Z,4.17
2023-08-16T11:17:25.427Z,3.89
2023-08-16T11:19:52.432Z,3.31
2023-08-16T11:22:19.579Z,3.53
2023-08-16T11:24:46.429Z,3.56
2023-08-16T11:27:13.861Z,3.09
2023-08-16T11:29:40.684Z,3.19
2023-08-16T11:32:07.978Z,3.31
2023-08-16T11:34:34.741Z,3.28
2023-08-16T11:37:01.769Z,3.51
2023-08-16T11:39:28.458Z,3.19
2023-08-16T11:41:56.543Z,3.24
2023-08-16T11:44:24.167Z,3.67
2023-08-16T11:46:51.121Z,3.46
2023-08-16T11:49:17.855Z,3.66
2023-08-16T11:51:44.735Z,3.38
2023-08-16T11:54:11.416Z,3.48
2023-08-16T11:59:53.635Z,3.42
2023-08-16T12:02:23.995Z,3.04
2023-08-16T12:04:50.831Z,3.28
2023-08-16T12:07:18.360Z,3.49
2023-08-16T12:09:47.122Z,3.57
2023-08-16T12:12:13.757Z,3.54
2023-08-16T12:14:42.774Z,3.57
2023-08-16T12:17:09.673Z,3.43
2023-08-16T12:19:38.269Z,3.45
2023-08-16T12:22:04.897Z,3.24
2023-08-16T12:24:33.846Z,3.44
2023-08-16T12:27:04.228Z,3.34
2023-08-16T12:29:33.147Z,3.37
2023-08-16T12:32:02.451Z,3.09
2023-08-16T12:34:29.455Z,2.92
2023-08-16T12:36:56.168Z,3.40
2023-08-16T12:39:23.692Z,3.84
2023-08-16T12:41:53.269Z,4.00
2023-08-16T12:44:20.367Z,3.86
2023-08-16T12:46:50.884Z,4.22
2023-08-16T12:49:17.949Z,3.95
2023-08-16T12:51:44.607Z,3.70
2023-08-16T12:54:11.317Z,4.07
2023-08-16T12:56:46.611Z,3.55
2023-08-16T13:02:36.916Z,3.77
2023-08-16T13:07:50.057Z,3.99
2023-08-16T13:15:26.149Z,3.63
2023-08-16T13:18:21.361Z,3.70
2023-08-16T13:23:12.396Z,4.04
2023-08-16T13:28:21.128Z,3.94
2023-08-16T13:30:50.201Z,3.96
2023-08-16T13:33:44.357Z,3.71
2023-08-16T13:36:23.275Z,3.58
2023-08-16T13:38:50.461Z,3.40
2023-08-16T13:41:24.868Z,4.06
2023-08-16T13:44:23.307Z,3.43
2023-08-16T13:46:39.001Z,3.42
2023-08-16T13:49:06.557Z,3.64
2023-08-16T13:51:33.551Z,3.65
2023-08-16T13:54:00.599Z,3.39
2023-08-16T13:56:32.421Z,3.49
2023-08-16T13:59:06.497Z,3.70
2023-08-16T14:02:01.134Z,3.47
2023-08-16T14:04:28.076Z,3.39
2023-08-16T14:06:56.601Z,3.40
2023-08-16T14:09:23.947Z,3.47
2023-08-16T14:11:51.606Z,3.30
2023-08-16T14:14:19.172Z,3.26
2023-08-16T14:16:55.317Z,3.51
2023-08-16T14:19:22.145Z,3.32
2023-08-16T14:21:50.318Z,3.04
2023-08-16T14:24:17.498Z,3.31
2023-08-16T14:26:44.371Z,3.35
2023-08-16T14:29:11.170Z,3.34
2023-08-16T14:31:38.139Z,3.16
2023-08-16T14:34:05.337Z,2.94
2023-08-16T14:36:32.268Z,3.34
2023-08-16T14:39:00.822Z,3.10
2023-08-16T14:41:27.951Z,3.40
2023-08-16T14:43:56.807Z,2.91
2023-08-16T14:46:24.697Z,3.19
2023-08-16T14:48:52.271Z,3.31
2023-08-16T14:51:20.301Z,3.06
2023-08-16T14:53:47.142Z,2.93
2023-08-16T14:56:14.153Z,2.81
2023-08-16T14:58:41.935Z,3.20
2023-08-16T15:01:08.980Z,2.97
2023-08-16T15:03:36.666Z,3.29
2023-08-16T15:06:03.475Z,3.15
2023-08-16T15:08:33.273Z,2.94
2023-08-16T15:11:00.719Z,3.13
2023-08-16T15:13:27.374Z,2.93
2023-08-16T15:15:54.070Z,3.04
2023-08-16T15:18:21.697Z,2.86
2023-08-16T15:26:41.579Z,3.00
2023-08-16T15:32:04.550Z,3.07
2023-08-16T15:34:32.277Z,2.92
2023-08-16T15:36:59.334Z,2.96
2023-08-16T15:39:26.040Z,3.24
2023-08-16T15:41:52.953Z,3.04
2023-08-16T15:44:20.449Z,3.31
2023-08-16T15:46:47.591Z,3.08
2023-08-16T15:49:14.486Z,2.97
2023-08-16T15:51:41.928Z,2.93
2023-08-16T15:54:11.073Z,2.65
2023-08-16T15:56:37.696Z,2.93
2023-08-16T15:59:04.347Z,2.68
2023-08-16T16:01:31.097Z,3.35
2023-08-16T16:03:57.863Z,3.12
2023-08-16T16:12:39.953Z,3.57
2023-08-16T16:15:12.491Z,3.39
2023-08-16T16:17:39.461Z,3.13
2023-08-16T16:20:06.424Z,2.97
2023-08-16T16:22:33.376Z,2.89
2023-08-16T16:25:00.899Z,2.85
2023-08-16T16:27:28.149Z,2.88
2023-08-16T16:29:56.280Z,2.99
2023-08-16T16:32:25.137Z,2.81
2023-08-16T16:34:56.325Z,2.81
2023-08-16T16:40:34.658Z,3.12
2023-08-16T16:45:54.986Z,3.08
2023-08-16T16:48:27.984Z,2.69
2023-08-16T16:50:57.087Z,2.68
2023-08-16T16:53:24.303Z,2.79
2023-08-16T16:56:05.970Z,3.15
2023-08-16T16:58:36.496Z,2.96
2023-08-16T17:01:06.612Z,3.27
2023-08-16T17:03:35.630Z,2.99
2023-08-16T17:06:07.381Z,3.15
2023-08-16T17:12:30.139Z,3.35
2023-08-16T17:14:17.892Z,3.41
2023-08-16T17:17:23.529Z,3.17
2023-08-16T17:19:37.298Z,3.19
2023-08-16T17:22:56.897Z,3.41
2023-08-16T17:24:57.717Z,3.36
2023-08-16T17:27:36.473Z,3.62
2023-08-16T17:33:20.248Z,3.60
2023-08-16T17:35:57.826Z,3.48
2023-08-16T17:38:43.658Z,3.76
2023-08-16T17:41:12.493Z,3.54
2023-08-16T17:43:41.059Z,3.41
2023-08-16T17:46:08.051Z,3.34
2023-08-16T17:48:35.843Z,3.38
2023-08-16T17:51:02.943Z,3.25
2023-08-16T17:53:29.593Z,3.16
2023-08-16T17:55:56.493Z,3.11
2023-08-16T17:58:23.338Z,3.21
2023-08-16T18:00:52.633Z,3.13
2023-08-16T18:03:21.069Z,3.35
2023-08-16T18:05:48.688Z,3.62
2023-08-16T18:08:15.514Z,3.48
2023-08-16T18:10:42.034Z,3.77
2023-08-16T18:13:08.862Z,4.68
2023-08-16T18:15:35.852Z,5.77
2023-08-16T18:18:02.583Z,6.61
2023-08-16T18:20:29.745Z,5.06
2023-08-16T18:22:56.952Z,5.82
2023-08-16T18:25:24.014Z,3.31
2023-08-16T18:27:50.808Z,3.04
2023-08-16T18:30:18.536Z,2.94
2023-08-16T18:32:45.196Z,3.18
2023-08-16T18:35:12.014Z,3.61
2023-08-16T18:37:39.825Z,3.45
2023-08-16T18:40:08.023Z,4.41
2023-08-16T18:42:35.061Z,4.77
2023-08-16T18:45:01.698Z,3.42
2023-08-16T18:47:29.438Z,3.58
2023-08-16T18:49:56.217Z,3.61
2023-08-16T18:52:26.446Z,3.38
2023-08-16T18:54:53.335Z,4.01
2023-08-16T18:57:19.837Z,4.65
2023-08-16T18:59:46.409Z,4.07
2023-08-16T19:02:14.006Z,3.97
2023-08-16T19:04:40.698Z,3.51
2023-08-16T19:07:07.441Z,3.67
2023-08-16T19:09:34.969Z,4.01
2023-08-16T19:12:01.582Z,4.10
2023-08-16T19:14:28.215Z,5.79
2023-08-16T19:16:55.002Z,5.22
2023-08-16T19:19:21.650Z,4.61
2023-08-16T19:21:48.340Z,4.76
2023-08-16T19:24:15.057Z,4.76
2023-08-16T19:26:41.650Z,5.06
2023-08-16T19:29:08.358Z,4.65
2023-08-16T19:31:34.912Z,4.66
2023-08-16T19:34:01.654Z,4.81
2023-08-16T19:36:28.170Z,5.02
2023-08-16T19:38:56.097Z,4.76
2023-08-16T19:41:23.129Z,4.95
2023-08-16T19:43:50.835Z,5.07
2023-08-16T19:46:18.164Z,5.17
2023-08-16T19:48:45.336Z,4.96
2023-08-16T19:51:12.139Z,4.24
2023-08-16T19:53:38.871Z,3.97
2023-08-16T19:56:05.550Z,3.68
2023-08-16T19:58:32.509Z,3.69
2023-08-16T20:00:59.206Z,3.89
2023-08-16T20:03:25.988Z,3.73
2023-08-16T20:05:52.736Z,4.28
2023-08-16T20:08:19.706Z,4.28
2023-08-16T20:10:46.545Z,4.65
2023-08-16T20:13:13.176Z,4.38
2023-08-16T20:15:39.754Z,4.06
2023-08-16T20:18:06.771Z,4.29
2023-08-16T20:20:33.340Z,3.44
2023-08-16T20:23:02.621Z,3.78
2023-08-16T20:25:30.216Z,3.75
2023-08-16T20:28:00.275Z,3.41
2023-08-16T20:30:27.139Z,3.68
2023-08-16T20:32:53.823Z,3.77
2023-08-16T20:35:20.565Z,3.53
2023-08-16T20:37:47.232Z,3.32
2023-08-16T20:40:14.122Z,3.63
2023-08-16T20:42:40.795Z,3.67
2023-08-16T20:45:07.536Z,3.47
2023-08-16T20:47:35.065Z,3.32
2023-08-16T20:50:02.265Z,3.38
2023-08-16T20:52:28.878Z,3.25
2023-08-16T20:54:55.508Z,3.51
2023-08-16T20:57:22.140Z,3.56
2023-08-16T20:59:48.782Z,3.20
2023-08-16T21:02:15.396Z,3.27
2023-08-16T21:04:41.946Z,3.37
2023-08-16T21:07:08.886Z,3.38
2023-08-16T21:09:35.412Z,3.57
2023-08-16T21:12:05.517Z,3.56
2023-08-16T21:14:32.493Z,3.68
2023-08-16T21:17:00.085Z,3.82
2023-08-16T21:19:30.220Z,3.90
2023-08-16T21:21:59.506Z,3.60
2023-08-16T21:24:26.372Z,3.39
2023-08-16T21:26:53.334Z,3.72
2023-08-16T21:29:20.052Z,3.77
2023-08-16T21:31:46.670Z,3.58
2023-08-16T21:34:13.341Z,3.71
2023-08-16T21:36:40.199Z,3.44
2023-08-16T21:39:09.220Z,3.62
2023-08-16T21:41:35.768Z,3.74
2023-08-16T21:44:03.055Z,3.85
2023-08-16T21:46:29.718Z,4.04
2023-08-16T21:48:56.723Z,4.25
2023-08-16T21:51:24.745Z,3.91
2023-08-16T21:53:52.628Z,4.24
2023-08-16T21:56:19.158Z,4.01
2023-08-16T21:58:46.109Z,3.94
2023-08-16T22:01:13.075Z,3.60
2023-08-16T22:03:39.790Z,3.99
2023-08-16T22:06:11.584Z,4.01
2023-08-16T22:08:38.582Z,4.15
2023-08-16T22:11:06.453Z,3.98
2023-08-16T22:13:33.128Z,4.22
2023-08-16T22:16:00.574Z,3.73
2023-08-16T22:18:33.120Z,3.90
2023-08-16T22:21:03.842Z,3.59
2023-08-16T22:23:32.835Z,3.75
2023-08-16T22:26:01.263Z,3.55
2023-08-16T22:31:12.878Z,3.63
2023-08-16T22:33:40.355Z,3.65
2023-08-16T22:36:09.152Z,3.69
2023-08-16T22:38:35.984Z,3.68
2023-08-16T22:41:04.816Z,3.46
2023-08-16T22:43:31.860Z,3.46
2023-08-16T22:45:58.706Z,3.28
2023-08-16T22:48:25.563Z,3.50
2023-08-16T22:50:55.310Z,3.56
2023-08-16T22:53:21.970Z,3.51
2023-08-16T22:55:48.829Z,3.60
2023-08-16T22:58:16.448Z,3.49
2023-08-16T23:00:43.634Z,3.60
2023-08-16T23:03:11.177Z,3.48
2023-08-16T23:05:39.169Z,3.47
2023-08-16T23:08:05.717Z,3.59
2023-08-16T23:10:33.956Z,3.40
2023-08-16T23:13:00.936Z,3.20
2023-08-16T23:15:28.978Z,3.15
2023-08-16T23:17:55.928Z,3.55
2023-08-16T23:20:23.909Z,3.18
2023-08-16T23:22:52.652Z,2.97
2023-08-16T23:25:20.835Z,3.18
2023-08-16T23:27:49.201Z,3.10
2023-08-16T23:30:16.573Z,3.31
2023-08-16T23:32:45.613Z,3.43
2023-08-16T23:35:12.230Z,3.02
2023-08-16T23:37:39.131Z,3.10
2023-08-16T23:40:06.199Z,3.20
2023-08-16T23:42:33.721Z,3.07
2023-08-16T23:45:07.411Z,3.25
2023-08-16T23:47:35.869Z,2.87
2023-08-16T23:50:03.477Z,2.78
2023-08-16T23:52:31.918Z,3.23
2023-08-16T23:54:58.718Z,2.84
2023-08-16T23:57:26.341Z,2.78
2023-08-16T23:59:53.107Z,2.67
